sensor_id;sensor_type;location;lat;lon;timestamp;P1;durP1;ratioP1;P2;durP2;ratioP2
1446;SDS011;717;51.522;7.266;2022-07-23T00:01:05;7.63;;;5.35;;
1446;SDS011;717;51.522;7.266;2022-07-23T00:03:31;8.75;;;5.57;;
1446;SDS011;717;51.522;7.266;2022-07-23T00:05:58;5.95;;;4.88;;
1446;SDS011;717;51.522;7.266;2022-07-23T00:08:25;6.50;;;4.80;;
1446;SDS011;717;51.522;7.266;2022-07-23T00:10:53;5.38;;;4.88;;
1446;SDS011;717;51.522;7.266;2022-07-23T00:13:20;8.60;;;5.75;;
1446;SDS011;717;51.522;7.266;2022-07-23T00:15:46;7.43;;;5.70;;
1446;SDS011;717;51.522;7.266;2022-07-23T00:18:13;6.28;;;5.68;;
1446;SDS011;717;51.522;7.266;2022-07-23T00:20:40;6.72;;;5.60;;
1446;SDS011;717;51.522;7.266;2022-07-23T00:23:06;7.43;;;5.15;;
1446;SDS011;717;51.522;7.266;2022-07-23T00:25:33;7.25;;;5.93;;
1446;SDS011;717;51.522;7.266;2022-07-23T00:28:02;8.88;;;5.75;;
1446;SDS011;717;51.522;7.266;2022-07-23T00:30:29;8.43;;;5.88;;
1446;SDS011;717;51.522;7.266;2022-07-23T00:32:57;7.20;;;5.50;;
1446;SDS011;717;51.522;7.266;2022-07-23T00:35:26;7.53;;;6.57;;
1446;SDS011;717;51.522;7.266;2022-07-23T00:37:54;6.45;;;5.80;;
1446;SDS011;717;51.522;7.266;2022-07-23T00:40:22;8.40;;;6.18;;
1446;SDS011;717;51.522;7.266;2022-07-23T00:42:49;6.90;;;5.47;;
1446;SDS011;717;51.522;7.266;2022-07-23T00:45:17;7.05;;;5.57;;
1446;SDS011;717;51.522;7.266;2022-07-23T00:47:44;6.35;;;5.63;;
1446;SDS011;717;51.522;7.266;2022-07-23T00:50:10;7.30;;;6.60;;
1446;SDS011;717;51.522;7.266;2022-07-23T00:52:38;6.78;;;6.18;;
1446;SDS011;717;51.522;7.266;2022-07-23T00:55:07;7.57;;;5.45;;
1446;SDS011;717;51.522;7.266;2022-07-23T00:57:34;7.55;;;5.68;;
1446;SDS011;717;51.522;7.266;2022-07-23T01:00:02;7.80;;;6.20;;
1446;SDS011;717;51.522;7.266;2022-07-23T01:02:31;7.15;;;6.40;;
1446;SDS011;717;51.522;7.266;2022-07-23T01:04:58;7.30;;;6.57;;
1446;SDS011;717;51.522;7.266;2022-07-23T01:07:24;7.13;;;6.45;;
1446;SDS011;717;51.522;7.266;2022-07-23T01:09:51;6.88;;;6.28;;
1446;SDS011;717;51.522;7.266;2022-07-23T01:12:18;7.30;;;6.57;;
1446;SDS011;717;51.522;7.266;2022-07-23T01:14:46;8.18;;;6.32;;
1446;SDS011;717;51.522;7.266;2022-07-23T01:17:19;7.32;;;6.65;;
1446;SDS011;717;51.522;7.266;2022-07-23T01:19:48;7.07;;;6.43;;
1446;SDS011;717;51.522;7.266;2022-07-23T01:22:15;7.03;;;6.38;;
1446;SDS011;717;51.522;7.266;2022-07-23T01:24:46;6.90;;;6.30;;
1446;SDS011;717;51.522;7.266;2022-07-23T01:27:13;8.70;;;6.93;;
1446;SDS011;717;51.522;7.266;2022-07-23T01:29:42;7.13;;;6.43;;
1446;SDS011;717;51.522;7.266;2022-07-23T01:32:09;7.18;;;6.57;;
1446;SDS011;717;51.522;7.266;2022-07-23T01:34:36;8.50;;;6.95;;
1446;SDS011;717;51.522;7.266;2022-07-23T01:37:02;7.78;;;6.22;;
1446;SDS011;717;51.522;7.266;2022-07-23T01:39:29;7.32;;;6.53;;
1446;SDS011;717;51.522;7.266;2022-07-23T01:41:57;7.70;;;6.93;;
1446;SDS011;717;51.522;7.266;2022-07-23T01:44:23;8.25;;;6.68;;
1446;SDS011;717;51.522;7.266;2022-07-23T01:46:50;7.90;;;7.13;;
1446;SDS011;717;51.522;7.266;2022-07-23T01:49:17;7.85;;;7.05;;
1446;SDS011;717;51.522;7.266;2022-07-23T01:51:44;8.45;;;7.63;;
1446;SDS011;717;51.522;7.266;2022-07-23T02:30:56;7.65;;;6.95;;
1446;SDS011;717;51.522;7.266;2022-07-23T02:33:23;7.47;;;6.78;;
1446;SDS011;717;51.522;7.266;2022-07-23T02:35:50;7.00;;;6.40;;
1446;SDS011;717;51.522;7.266;2022-07-23T02:38:17;7.80;;;7.07;;
1446;SDS011;717;51.522;7.266;2022-07-23T02:40:43;8.57;;;7.85;;
1446;SDS011;717;51.522;7.266;2022-07-23T02:43:10;8.90;;;8.10;;
1446;SDS011;717;51.522;7.266;2022-07-23T02:45:37;8.40;;;7.50;;
1446;SDS011;717;51.522;7.266;2022-07-23T02:48:05;8.50;;;6.93;;
1446;SDS011;717;51.522;7.266;2022-07-23T02:50:32;9.93;;;7.50;;
1446;SDS011;717;51.522;7.266;2022-07-23T02:52:58;9.35;;;7.68;;
1446;SDS011;717;51.522;7.266;2022-07-23T02:55:25;7.45;;;6.75;;
1446;SDS011;717;51.522;7.266;2022-07-23T02:57:52;8.93;;;8.02;;
1446;SDS011;717;51.522;7.266;2022-07-23T03:00:19;8.10;;;7.40;;
1446;SDS011;717;51.522;7.266;2022-07-23T03:02:45;10.10;;;8.05;;
1446;SDS011;717;51.522;7.266;2022-07-23T03:05:13;9.40;;;8.48;;
1446;SDS011;717;51.522;7.266;2022-07-23T03:07:40;8.35;;;7.65;;
1446;SDS011;717;51.522;7.266;2022-07-23T03:10:07;8.52;;;7.75;;
1446;SDS011;717;51.522;7.266;2022-07-23T03:12:34;9.45;;;7.72;;
1446;SDS011;717;51.522;7.266;2022-07-23T03:15:01;9.00;;;8.10;;
1446;SDS011;717;51.522;7.266;2022-07-23T03:17:28;9.40;;;8.50;;
1446;SDS011;717;51.522;7.266;2022-07-23T03:19:55;8.98;;;8.18;;
1446;SDS011;717;51.522;7.266;2022-07-23T03:22:23;9.88;;;8.85;;
1446;SDS011;717;51.522;7.266;2022-07-23T03:24:49;8.82;;;8.02;;
1446;SDS011;717;51.522;7.266;2022-07-23T03:27:23;9.07;;;8.15;;
1446;SDS011;717;51.522;7.266;2022-07-23T03:29:51;10.15;;;9.15;;
1446;SDS011;717;51.522;7.266;2022-07-23T03:32:18;11.35;;;9.77;;
1446;SDS011;717;51.522;7.266;2022-07-23T03:34:46;9.75;;;8.88;;
1446;SDS011;717;51.522;7.266;2022-07-23T03:37:12;9.63;;;8.73;;
1446;SDS011;717;51.522;7.266;2022-07-23T03:39:41;9.23;;;8.32;;
1446;SDS011;717;51.522;7.266;2022-07-23T03:42:07;9.80;;;8.93;;
1446;SDS011;717;51.522;7.266;2022-07-23T03:44:34;9.05;;;8.15;;
1446;SDS011;717;51.522;7.266;2022-07-23T03:47:03;10.55;;;9.52;;
1446;SDS011;717;51.522;7.266;2022-07-23T03:49:30;10.90;;;9.02;;
1446;SDS011;717;51.522;7.266;2022-07-23T03:51:58;9.25;;;8.35;;
1446;SDS011;717;51.522;7.266;2022-07-23T03:54:25;9.98;;;8.98;;
1446;SDS011;717;51.522;7.266;2022-07-23T03:56:53;10.30;;;9.02;;
1446;SDS011;717;51.522;7.266;2022-07-23T03:59:19;9.70;;;8.70;;
1446;SDS011;717;51.522;7.266;2022-07-23T04:01:47;11.05;;;10.05;;
1446;SDS011;717;51.522;7.266;2022-07-23T04:04:13;10.85;;;9.82;;
1446;SDS011;717;51.522;7.266;2022-07-23T04:06:40;10.93;;;9.93;;
1446;SDS011;717;51.522;7.266;2022-07-23T04:09:07;10.93;;;9.82;;
1446;SDS011;717;51.522;7.266;2022-07-23T04:11:34;12.45;;;9.90;;
1446;SDS011;717;51.522;7.266;2022-07-23T04:14:02;10.48;;;9.43;;
1446;SDS011;717;51.522;7.266;2022-07-23T04:16:29;10.15;;;9.25;;
1446;SDS011;717;51.522;7.266;2022-07-23T04:18:56;9.70;;;8.80;;
1446;SDS011;717;51.522;7.266;2022-07-23T04:21:23;10.20;;;9.15;;
1446;SDS011;717;51.522;7.266;2022-07-23T04:23:49;9.45;;;8.43;;
1446;SDS011;717;51.522;7.266;2022-07-23T04:26:16;10.15;;;9.07;;
1446;SDS011;717;51.522;7.266;2022-07-23T04:28:43;11.25;;;8.77;;
1446;SDS011;717;51.522;7.266;2022-07-23T04:31:11;10.25;;;9.35;;
1446;SDS011;717;51.522;7.266;2022-07-23T04:33:38;9.82;;;8.93;;
1446;SDS011;717;51.522;7.266;2022-07-23T04:36:04;9.82;;;8.90;;
1446;SDS011;717;51.522;7.266;2022-07-23T04:38:31;9.10;;;8.20;;
1446;SDS011;717;51.522;7.266;2022-07-23T04:40:58;9.80;;;8.90;;
1446;SDS011;717;51.522;7.266;2022-07-23T04:43:25;9.77;;;8.77;;
1446;SDS011;717;51.522;7.266;2022-07-23T04:45:52;9.35;;;8.55;;
1446;SDS011;717;51.522;7.266;2022-07-23T04:48:20;9.35;;;8.48;;
1446;SDS011;717;51.522;7.266;2022-07-23T04:50:47;9.02;;;8.23;;
1446;SDS011;717;51.522;7.266;2022-07-23T04:53:14;9.55;;;8.70;;
1446;SDS011;717;51.522;7.266;2022-07-23T04:55:42;8.73;;;7.95;;
1446;SDS011;717;51.522;7.266;2022-07-23T04:58:09;9.95;;;8.95;;
1446;SDS011;717;51.522;7.266;2022-07-23T05:00:36;8.82;;;8.10;;
1446;SDS011;717;51.522;7.266;2022-07-23T05:03:03;9.75;;;8.90;;
1446;SDS011;717;51.522;7.266;2022-07-23T05:05:31;10.07;;;9.27;;
1446;SDS011;717;51.522;7.266;2022-07-23T05:07:58;10.32;;;9.38;;
1446;SDS011;717;51.522;7.266;2022-07-23T05:10:24;10.00;;;9.10;;
1446;SDS011;717;51.522;7.266;2022-07-23T05:12:51;9.77;;;8.80;;
1446;SDS011;717;51.522;7.266;2022-07-23T05:15:18;10.23;;;9.27;;
1446;SDS011;717;51.522;7.266;2022-07-23T05:17:45;10.05;;;9.10;;
1446;SDS011;717;51.522;7.266;2022-07-23T05:20:12;10.57;;;9.45;;
1446;SDS011;717;51.522;7.266;2022-07-23T05:22:41;10.68;;;9.60;;
1446;SDS011;717;51.522;7.266;2022-07-23T05:25:08;10.85;;;9.80;;
1446;SDS011;717;51.522;7.266;2022-07-23T05:27:35;10.63;;;9.68;;
1446;SDS011;717;51.522;7.266;2022-07-23T05:30:02;12.90;;;10.50;;
1446;SDS011;717;51.522;7.266;2022-07-23T05:32:30;10.95;;;9.90;;
1446;SDS011;717;51.522;7.266;2022-07-23T05:34:57;10.65;;;9.60;;
1446;SDS011;717;51.522;7.266;2022-07-23T05:37:24;10.48;;;9.43;;
1446;SDS011;717;51.522;7.266;2022-07-23T05:39:52;10.80;;;9.80;;
1446;SDS011;717;51.522;7.266;2022-07-23T05:42:20;11.68;;;10.15;;
1446;SDS011;717;51.522;7.266;2022-07-23T05:44:46;10.90;;;9.80;;
1446;SDS011;717;51.522;7.266;2022-07-23T05:47:13;11.65;;;10.32;;
1446;SDS011;717;51.522;7.266;2022-07-23T05:49:40;11.13;;;10.02;;
1446;SDS011;717;51.522;7.266;2022-07-23T05:52:07;12.65;;;10.15;;
1446;SDS011;717;51.522;7.266;2022-07-23T05:54:34;11.52;;;10.32;;
1446;SDS011;717;51.522;7.266;2022-07-23T05:57:03;13.85;;;11.05;;
1446;SDS011;717;51.522;7.266;2022-07-23T05:59:30;12.27;;;10.70;;
1446;SDS011;717;51.522;7.266;2022-07-23T06:01:57;13.63;;;12.02;;
1446;SDS011;717;51.522;7.266;2022-07-23T06:04:24;13.60;;;12.30;;
1446;SDS011;717;51.522;7.266;2022-07-23T06:06:50;13.23;;;11.82;;
1446;SDS011;717;51.522;7.266;2022-07-23T06:09:18;12.30;;;10.88;;
1446;SDS011;717;51.522;7.266;2022-07-23T06:11:44;13.68;;;12.27;;
1446;SDS011;717;51.522;7.266;2022-07-23T06:14:12;13.25;;;11.95;;
1446;SDS011;717;51.522;7.266;2022-07-23T06:16:39;12.50;;;11.25;;
1446;SDS011;717;51.522;7.266;2022-07-23T06:19:06;14.10;;;12.60;;
1446;SDS011;717;51.522;7.266;2022-07-23T06:21:33;14.95;;;12.98;;
1446;SDS011;717;51.522;7.266;2022-07-23T06:23:59;18.38;;;16.23;;
1446;SDS011;717;51.522;7.266;2022-07-23T06:26:26;25.38;;;22.65;;
1446;SDS011;717;51.522;7.266;2022-07-23T06:28:53;31.52;;;27.05;;
1446;SDS011;717;51.522;7.266;2022-07-23T06:31:21;32.90;;;29.38;;
1446;SDS011;717;51.522;7.266;2022-07-23T06:33:47;22.95;;;20.50;;
1446;SDS011;717;51.522;7.266;2022-07-23T06:36:15;21.63;;;19.27;;
1446;SDS011;717;51.522;7.266;2022-07-23T06:38:41;23.45;;;19.52;;
1446;SDS011;717;51.522;7.266;2022-07-23T06:41:08;24.27;;;20.50;;
1446;SDS011;717;51.522;7.266;2022-07-23T06:43:35;22.52;;;18.73;;
1446;SDS011;717;51.522;7.266;2022-07-23T06:46:02;21.40;;;18.02;;
1446;SDS011;717;51.522;7.266;2022-07-23T06:48:30;22.15;;;19.38;;
1446;SDS011;717;51.522;7.266;2022-07-23T06:50:59;24.17;;;21.08;;
1446;SDS011;717;51.522;7.266;2022-07-23T06:53:26;23.70;;;20.52;;
1446;SDS011;717;51.522;7.266;2022-07-23T06:55:53;22.50;;;19.83;;
1446;SDS011;717;51.522;7.266;2022-07-23T06:58:20;19.83;;;17.73;;
1446;SDS011;717;51.522;7.266;2022-07-23T07:00:46;19.30;;;17.13;;
1446;SDS011;717;51.522;7.266;2022-07-23T07:03:13;17.08;;;15.38;;
1446;SDS011;717;51.522;7.266;2022-07-23T07:05:43;19.92;;;17.30;;
1446;SDS011;717;51.522;7.266;2022-07-23T07:08:10;18.27;;;16.42;;
1446;SDS011;717;51.522;7.266;2022-07-23T07:10:37;17.85;;;15.98;;
1446;SDS011;717;51.522;7.266;2022-07-23T07:13:04;20.58;;;18.48;;
1446;SDS011;717;51.522;7.266;2022-07-23T07:15:30;25.77;;;21.80;;
1446;SDS011;717;51.522;7.266;2022-07-23T07:17:57;20.83;;;18.63;;
1446;SDS011;717;51.522;7.266;2022-07-23T07:20:24;23.95;;;20.90;;
1446;SDS011;717;51.522;7.266;2022-07-23T07:22:52;23.70;;;20.33;;
1446;SDS011;717;51.522;7.266;2022-07-23T07:25:19;22.90;;;20.42;;
1446;SDS011;717;51.522;7.266;2022-07-23T07:27:45;21.80;;;19.50;;
1446;SDS011;717;51.522;7.266;2022-07-23T07:30:12;20.05;;;17.55;;
1446;SDS011;717;51.522;7.266;2022-07-23T07:32:39;18.38;;;16.30;;
1446;SDS011;717;51.522;7.266;2022-07-23T07:35:07;17.80;;;15.95;;
1446;SDS011;717;51.522;7.266;2022-07-23T07:37:34;17.02;;;15.23;;
1446;SDS011;717;51.522;7.266;2022-07-23T07:40:02;15.60;;;14.00;;
1446;SDS011;717;51.522;7.266;2022-07-23T07:42:30;17.35;;;13.85;;
1446;SDS011;717;51.522;7.266;2022-07-23T07:44:57;16.67;;;13.68;;
1446;SDS011;717;51.522;7.266;2022-07-23T07:47:24;15.25;;;13.73;;
1446;SDS011;717;51.522;7.266;2022-07-23T07:49:50;15.35;;;13.23;;
1446;SDS011;717;51.522;7.266;2022-07-23T07:52:17;14.35;;;12.85;;
1446;SDS011;717;51.522;7.266;2022-07-23T07:54:44;14.07;;;12.68;;
1446;SDS011;717;51.522;7.266;2022-07-23T07:57:12;13.65;;;11.75;;
1446;SDS011;717;51.522;7.266;2022-07-23T07:59:39;12.57;;;10.68;;
1446;SDS011;717;51.522;7.266;2022-07-23T08:02:06;12.80;;;10.20;;
1446;SDS011;717;51.522;7.266;2022-07-23T08:04:33;9.15;;;8.25;;
1446;SDS011;717;51.522;7.266;2022-07-23T08:06:59;8.38;;;7.57;;
1446;SDS011;717;51.522;7.266;2022-07-23T08:09:26;8.70;;;7.65;;
1446;SDS011;717;51.522;7.266;2022-07-23T08:11:53;9.80;;;7.95;;
1446;SDS011;717;51.522;7.266;2022-07-23T08:14:21;8.43;;;7.70;;
1446;SDS011;717;51.522;7.266;2022-07-23T08:16:48;10.25;;;9.23;;
1446;SDS011;717;51.522;7.266;2022-07-23T08:19:15;9.48;;;8.57;;
1446;SDS011;717;51.522;7.266;2022-07-23T08:21:42;8.52;;;7.68;;
1446;SDS011;717;51.522;7.266;2022-07-23T08:24:08;9.70;;;8.73;;
1446;SDS011;717;51.522;7.266;2022-07-23T08:26:35;9.75;;;8.95;;
1446;SDS011;717;51.522;7.266;2022-07-23T08:29:02;10.45;;;9.45;;
1446;SDS011;717;51.522;7.266;2022-07-23T08:31:30;9.82;;;8.93;;
1446;SDS011;717;51.522;7.266;2022-07-23T08:33:57;10.25;;;9.20;;
1446;SDS011;717;51.522;7.266;2022-07-23T08:36:24;10.05;;;9.25;;
1446;SDS011;717;51.522;7.266;2022-07-23T08:38:52;10.55;;;9.75;;
1446;SDS011;717;51.522;7.266;2022-07-23T08:41:19;10.10;;;9.32;;
1446;SDS011;717;51.522;7.266;2022-07-23T08:43:46;10.45;;;9.55;;
1446;SDS011;717;51.522;7.266;2022-07-23T08:46:13;9.55;;;8.75;;
1446;SDS011;717;51.522;7.266;2022-07-23T08:48:42;10.65;;;9.85;;
1446;SDS011;717;51.522;7.266;2022-07-23T08:51:09;10.95;;;9.93;;
1446;SDS011;717;51.522;7.266;2022-07-23T08:53:36;10.65;;;9.73;;
1446;SDS011;717;51.522;7.266;2022-07-23T08:56:04;12.05;;;10.98;;
1446;SDS011;717;51.522;7.266;2022-07-23T08:58:31;10.73;;;9.63;;
1446;SDS011;717;51.522;7.266;2022-07-23T09:00:58;9.20;;;8.40;;
1446;SDS011;717;51.522;7.266;2022-07-23T09:03:27;10.00;;;9.10;;
1446;SDS011;717;51.522;7.266;2022-07-23T09:05:56;12.20;;;11.02;;
1446;SDS011;717;51.522;7.266;2022-07-23T09:08:24;11.02;;;10.02;;
1446;SDS011;717;51.522;7.266;2022-07-23T09:10:53;12.82;;;11.65;;
1446;SDS011;717;51.522;7.266;2022-07-23T09:13:25;11.65;;;10.65;;
1446;SDS011;717;51.522;7.266;2022-07-23T09:15:56;9.48;;;8.77;;
1446;SDS011;717;51.522;7.266;2022-07-23T09:18:28;8.32;;;7.32;;
1446;SDS011;717;51.522;7.266;2022-07-23T09:21:06;7.72;;;7.00;;
1446;SDS011;717;51.522;7.266;2022-07-23T09:23:38;7.75;;;6.95;;
1446;SDS011;717;51.522;7.266;2022-07-23T09:29:00;9.20;;;8.45;;
1446;SDS011;717;51.522;7.266;2022-07-23T09:31:32;9.63;;;8.77;;
1446;SDS011;717;51.522;7.266;2022-07-23T09:34:07;9.90;;;9.02;;
1446;SDS011;717;51.522;7.266;2022-07-23T09:36:37;8.77;;;8.05;;
1446;SDS011;717;51.522;7.266;2022-07-23T09:39:05;6.00;;;5.53;;
1446;SDS011;717;51.522;7.266;2022-07-23T09:41:37;5.38;;;4.65;;
1446;SDS011;717;51.522;7.266;2022-07-23T09:44:06;5.65;;;4.13;;
1446;SDS011;717;51.522;7.266;2022-07-23T09:46:35;6.53;;;4.20;;
1446;SDS011;717;51.522;7.266;2022-07-23T09:49:09;4.07;;;3.67;;
1446;SDS011;717;51.522;7.266;2022-07-23T09:51:44;4.30;;;3.92;;
1446;SDS011;717;51.522;7.266;2022-07-23T09:54:29;4.60;;;4.20;;
1446;SDS011;717;51.522;7.266;2022-07-23T09:56:59;4.65;;;4.07;;
1446;SDS011;717;51.522;7.266;2022-07-23T09:59:28;5.28;;;4.15;;
1446;SDS011;717;51.522;7.266;2022-07-23T10:01:57;4.38;;;3.97;;
1446;SDS011;717;51.522;7.266;2022-07-23T10:04:25;4.95;;;4.55;;
1446;SDS011;717;51.522;7.266;2022-07-23T10:06:55;6.40;;;3.50;;
1446;SDS011;717;51.522;7.266;2022-07-23T10:09:24;4.55;;;4.05;;
1446;SDS011;717;51.522;7.266;2022-07-23T10:11:55;3.97;;;3.55;;
1446;SDS011;717;51.522;7.266;2022-07-23T10:14:28;6.13;;;3.53;;
1446;SDS011;717;51.522;7.266;2022-07-23T10:16:57;7.13;;;3.70;;
1446;SDS011;717;51.522;7.266;2022-07-23T10:19:25;4.07;;;3.67;;
1446;SDS011;717;51.522;7.266;2022-07-23T10:21:53;3.33;;;2.95;;
1446;SDS011;717;51.522;7.266;2022-07-23T10:24:28;3.63;;;3.30;;
1446;SDS011;717;51.522;7.266;2022-07-23T10:27:13;3.30;;;3.00;;
1446;SDS011;717;51.522;7.266;2022-07-23T10:29:50;3.88;;;3.33;;
1446;SDS011;717;51.522;7.266;2022-07-23T10:32:25;3.72;;;2.90;;
1446;SDS011;717;51.522;7.266;2022-07-23T10:34:58;3.88;;;3.40;;
1446;SDS011;717;51.522;7.266;2022-07-23T10:37:39;4.28;;;3.65;;
1446;SDS011;717;51.522;7.266;2022-07-23T10:40:08;3.33;;;3.03;;
1446;SDS011;717;51.522;7.266;2022-07-23T10:42:37;5.15;;;3.20;;
1446;SDS011;717;51.522;7.266;2022-07-23T10:47:49;3.85;;;3.25;;
1446;SDS011;717;51.522;7.266;2022-07-23T10:50:17;4.53;;;3.13;;
1446;SDS011;717;51.522;7.266;2022-07-23T10:55:43;3.22;;;2.92;;
1446;SDS011;717;51.522;7.266;2022-07-23T10:58:12;4.57;;;3.60;;
1446;SDS011;717;51.522;7.266;2022-07-23T11:00:44;3.97;;;2.97;;
1446;SDS011;717;51.522;7.266;2022-07-23T11:03:31;3.13;;;2.65;;
1446;SDS011;717;51.522;7.266;2022-07-23T11:06:01;3.03;;;2.28;;
1446;SDS011;717;51.522;7.266;2022-07-23T11:08:31;2.75;;;2.35;;
1446;SDS011;717;51.522;7.266;2022-07-23T11:11:09;4.60;;;2.90;;
1446;SDS011;717;51.522;7.266;2022-07-23T11:13:49;3.17;;;2.17;;
1446;SDS011;717;51.522;7.266;2022-07-23T11:16:17;2.20;;;1.95;;
1446;SDS011;717;51.522;7.266;2022-07-23T11:18:59;2.53;;;2.33;;
1446;SDS011;717;51.522;7.266;2022-07-23T11:21:45;4.00;;;2.38;;
1446;SDS011;717;51.522;7.266;2022-07-23T11:24:14;3.40;;;2.72;;
1446;SDS011;717;51.522;7.266;2022-07-23T11:26:43;3.92;;;2.70;;
1446;SDS011;717;51.522;7.266;2022-07-23T11:32:31;2.47;;;2.20;;
1446;SDS011;717;51.522;7.266;2022-07-23T11:35:18;3.67;;;2.60;;
1446;SDS011;717;51.522;7.266;2022-07-23T11:37:48;3.90;;;2.35;;
1446;SDS011;717;51.522;7.266;2022-07-23T11:40:20;5.85;;;2.60;;
1446;SDS011;717;51.522;7.266;2022-07-23T11:45:33;2.80;;;1.88;;
1446;SDS011;717;51.522;7.266;2022-07-23T11:48:02;2.33;;;2.08;;
1446;SDS011;717;51.522;7.266;2022-07-23T11:50:31;2.08;;;1.88;;
1446;SDS011;717;51.522;7.266;2022-07-23T11:52:58;3.25;;;2.28;;
1446;SDS011;717;51.522;7.266;2022-07-23T11:55:26;4.15;;;1.70;;
1446;SDS011;717;51.522;7.266;2022-07-23T11:57:53;2.97;;;1.92;;
1446;SDS011;717;51.522;7.266;2022-07-23T12:00:21;1.85;;;1.65;;
1446;SDS011;717;51.522;7.266;2022-07-23T12:02:52;2.40;;;1.55;;
1446;SDS011;717;51.522;7.266;2022-07-23T12:05:21;2.95;;;1.88;;
1446;SDS011;717;51.522;7.266;2022-07-23T12:07:50;2.08;;;1.50;;
1446;SDS011;717;51.522;7.266;2022-07-23T12:10:18;2.03;;;1.83;;
1446;SDS011;717;51.522;7.266;2022-07-23T12:12:48;2.47;;;1.75;;
1446;SDS011;717;51.522;7.266;2022-07-23T12:15:17;3.65;;;1.67;;
1446;SDS011;717;51.522;7.266;2022-07-23T12:17:46;4.50;;;1.73;;
1446;SDS011;717;51.522;7.266;2022-07-23T12:20:15;3.65;;;2.28;;
1446;SDS011;717;51.522;7.266;2022-07-23T12:22:44;3.42;;;2.28;;
1446;SDS011;717;51.522;7.266;2022-07-23T12:25:13;4.30;;;2.30;;
1446;SDS011;717;51.522;7.266;2022-07-23T12:27:41;1.80;;;1.70;;
1446;SDS011;717;51.522;7.266;2022-07-23T12:30:17;2.50;;;2.15;;
1446;SDS011;717;51.522;7.266;2022-07-23T12:32:50;3.30;;;2.50;;
1446;SDS011;717;51.522;7.266;2022-07-23T12:35:17;2.55;;;1.90;;
1446;SDS011;717;51.522;7.266;2022-07-23T12:37:46;2.35;;;2.05;;
1446;SDS011;717;51.522;7.266;2022-07-23T12:40:24;3.92;;;1.75;;
1446;SDS011;717;51.522;7.266;2022-07-23T12:42:54;3.67;;;1.80;;
1446;SDS011;717;51.522;7.266;2022-07-23T12:45:24;1.85;;;1.75;;
1446;SDS011;717;51.522;7.266;2022-07-23T12:47:52;2.90;;;1.23;;
1446;SDS011;717;51.522;7.266;2022-07-23T12:53:16;1.80;;;1.50;;
1446;SDS011;717;51.522;7.266;2022-07-23T12:55:45;1.77;;;1.50;;
1446;SDS011;717;51.522;7.266;2022-07-23T12:58:14;2.30;;;1.80;;
1446;SDS011;717;51.522;7.266;2022-07-23T13:00:51;2.05;;;1.55;;
1446;SDS011;717;51.522;7.266;2022-07-23T13:03:23;4.38;;;1.88;;
1446;SDS011;717;51.522;7.266;2022-07-23T13:05:52;3.13;;;1.70;;
1446;SDS011;717;51.522;7.266;2022-07-23T13:08:19;2.08;;;1.55;;
1446;SDS011;717;51.522;7.266;2022-07-23T13:10:46;1.33;;;1.23;;
1446;SDS011;717;51.522;7.266;2022-07-23T13:13:13;2.83;;;1.50;;
1446;SDS011;717;51.522;7.266;2022-07-23T13:15:41;3.85;;;1.77;;
1446;SDS011;717;51.522;7.266;2022-07-23T13:18:09;1.83;;;1.70;;
1446;SDS011;717;51.522;7.266;2022-07-23T13:20:36;3.67;;;1.40;;
1446;SDS011;717;51.522;7.266;2022-07-23T13:23:04;2.08;;;1.35;;
1446;SDS011;717;51.522;7.266;2022-07-23T13:25:32;1.52;;;1.38;;
1446;SDS011;717;51.522;7.266;2022-07-23T13:27:58;1.77;;;1.50;;
1446;SDS011;717;51.522;7.266;2022-07-23T13:30:25;1.70;;;1.60;;
1446;SDS011;717;51.522;7.266;2022-07-23T13:32:52;2.92;;;1.42;;
1446;SDS011;717;51.522;7.266;2022-07-23T13:35:20;1.88;;;1.42;;
1446;SDS011;717;51.522;7.266;2022-07-23T13:37:47;1.52;;;1.42;;
1446;SDS011;717;51.522;7.266;2022-07-23T13:40:14;2.25;;;1.40;;
1446;SDS011;717;51.522;7.266;2022-07-23T13:42:41;1.73;;;1.50;;
1446;SDS011;717;51.522;7.266;2022-07-23T13:45:08;4.00;;;1.70;;
1446;SDS011;717;51.522;7.266;2022-07-23T13:47:35;2.67;;;1.40;;
1446;SDS011;717;51.522;7.266;2022-07-23T13:50:02;2.53;;;1.60;;
1446;SDS011;717;51.522;7.266;2022-07-23T13:52:32;2.42;;;1.40;;
1446;SDS011;717;51.522;7.266;2022-07-23T13:54:59;1.98;;;1.60;;
1446;SDS011;717;51.522;7.266;2022-07-23T13:57:26;1.38;;;1.15;;
1446;SDS011;717;51.522;7.266;2022-07-23T13:59:52;1.85;;;1.38;;
1446;SDS011;717;51.522;7.266;2022-07-23T14:02:19;1.80;;;1.10;;
1446;SDS011;717;51.522;7.266;2022-07-23T14:04:46;3.20;;;1.50;;
1446;SDS011;717;51.522;7.266;2022-07-23T14:07:13;2.10;;;1.27;;
1446;SDS011;717;51.522;7.266;2022-07-23T14:09:41;1.67;;;1.50;;
1446;SDS011;717;51.522;7.266;2022-07-23T14:12:08;1.70;;;1.30;;
1446;SDS011;717;51.522;7.266;2022-07-23T14:14:35;2.33;;;1.50;;
1446;SDS011;717;51.522;7.266;2022-07-23T14:17:02;2.05;;;1.80;;
1446;SDS011;717;51.522;7.266;2022-07-23T14:19:29;1.92;;;1.40;;
1446;SDS011;717;51.522;7.266;2022-07-23T14:21:56;2.35;;;1.55;;
1446;SDS011;717;51.522;7.266;2022-07-23T14:24:23;1.33;;;1.23;;
1446;SDS011;717;51.522;7.266;2022-07-23T14:26:51;1.75;;;1.60;;
1446;SDS011;717;51.522;7.266;2022-07-23T14:29:17;1.90;;;1.70;;
1446;SDS011;717;51.522;7.266;2022-07-23T14:31:44;2.22;;;1.80;;
1446;SDS011;717;51.522;7.266;2022-07-23T14:34:12;2.13;;;1.50;;
1446;SDS011;717;51.522;7.266;2022-07-23T14:36:39;2.10;;;2.00;;
1446;SDS011;717;51.522;7.266;2022-07-23T14:39:06;3.00;;;2.10;;
1446;SDS011;717;51.522;7.266;2022-07-23T14:41:34;2.17;;;1.95;;
1446;SDS011;717;51.522;7.266;2022-07-23T14:44:02;1.85;;;1.67;;
1446;SDS011;717;51.522;7.266;2022-07-23T14:46:30;2.25;;;1.40;;
1446;SDS011;717;51.522;7.266;2022-07-23T14:48:57;1.95;;;1.58;;
1446;SDS011;717;51.522;7.266;2022-07-23T14:51:24;2.33;;;1.70;;
1446;SDS011;717;51.522;7.266;2022-07-23T14:53:51;1.65;;;1.55;;
1446;SDS011;717;51.522;7.266;2022-07-23T14:56:18;1.50;;;1.40;;
1446;SDS011;717;51.522;7.266;2022-07-23T14:58:45;1.75;;;1.40;;
1446;SDS011;717;51.522;7.266;2022-07-23T15:01:13;1.90;;;1.70;;
1446;SDS011;717;51.522;7.266;2022-07-23T15:03:40;2.90;;;1.50;;
1446;SDS011;717;51.522;7.266;2022-07-23T15:06:07;2.20;;;1.55;;
1446;SDS011;717;51.522;7.266;2022-07-23T15:08:34;2.00;;;1.77;;
1446;SDS011;717;51.522;7.266;2022-07-23T15:11:01;3.05;;;1.65;;
1446;SDS011;717;51.522;7.266;2022-07-23T15:13:28;2.88;;;1.55;;
1446;SDS011;717;51.522;7.266;2022-07-23T15:15:54;3.55;;;1.60;;
1446;SDS011;717;51.522;7.266;2022-07-23T15:18:22;2.83;;;1.83;;
1446;SDS011;717;51.522;7.266;2022-07-23T15:20:49;1.88;;;1.75;;
1446;SDS011;717;51.522;7.266;2022-07-23T15:23:16;1.92;;;1.70;;
1446;SDS011;717;51.522;7.266;2022-07-23T15:25:43;2.03;;;1.75;;
1446;SDS011;717;51.522;7.266;2022-07-23T15:28:10;2.30;;;1.70;;
1446;SDS011;717;51.522;7.266;2022-07-23T15:30:36;2.22;;;2.05;;
1446;SDS011;717;51.522;7.266;2022-07-23T15:33:03;1.77;;;1.67;;
1446;SDS011;717;51.522;7.266;2022-07-23T15:35:32;2.47;;;1.75;;
1446;SDS011;717;51.522;7.266;2022-07-23T15:37:59;3.25;;;1.80;;
1446;SDS011;717;51.522;7.266;2022-07-23T15:40:26;1.92;;;1.83;;
1446;SDS011;717;51.522;7.266;2022-07-23T15:42:52;1.98;;;1.70;;
1446;SDS011;717;51.522;7.266;2022-07-23T15:45:19;2.30;;;2.10;;
1446;SDS011;717;51.522;7.266;2022-07-23T15:47:46;2.53;;;1.90;;
1446;SDS011;717;51.522;7.266;2022-07-23T15:50:14;2.80;;;2.17;;
1446;SDS011;717;51.522;7.266;2022-07-23T15:52:42;2.10;;;1.88;;
1446;SDS011;717;51.522;7.266;2022-07-23T15:55:09;2.33;;;2.10;;
1446;SDS011;717;51.522;7.266;2022-07-23T15:57:36;2.42;;;1.95;;
1446;SDS011;717;51.522;7.266;2022-07-23T16:00:04;3.03;;;1.95;;
1446;SDS011;717;51.522;7.266;2022-07-23T16:02:32;2.00;;;1.90;;
1446;SDS011;717;51.522;7.266;2022-07-23T16:04:59;3.22;;;2.30;;
1446;SDS011;717;51.522;7.266;2022-07-23T16:07:26;3.47;;;2.17;;
1446;SDS011;717;51.522;7.266;2022-07-23T16:09:54;4.22;;;2.25;;
1446;SDS011;717;51.522;7.266;2022-07-23T16:12:21;3.13;;;2.15;;
1446;SDS011;717;51.522;7.266;2022-07-23T16:14:48;2.08;;;1.88;;
1446;SDS011;717;51.522;7.266;2022-07-23T16:17:14;2.97;;;1.80;;
1446;SDS011;717;51.522;7.266;2022-07-23T16:19:41;2.05;;;1.85;;
1446;SDS011;717;51.522;7.266;2022-07-23T16:22:08;2.50;;;1.92;;